createdAt,value
2022-09-15T00:00:11.917Z,17.10
2022-09-15T00:04:55.253Z,17.00
2022-09-15T00:09:40.131Z,16.90
2022-09-15T00:14:23.539Z,16.90
2022-09-15T00:19:07.795Z,16.80
2022-09-15T00:23:51.769Z,17.00
2022-09-15T00:28:39.891Z,17.00
2022-09-15T00:33:24.415Z,16.80
2022-09-15T00:38:08.619Z,16.80
2022-09-15T00:42:52.014Z,16.80
2022-09-15T00:47:41.104Z,16.80
2022-09-15T00:52:29.557Z,16.80
2022-09-15T00:57:20.811Z,16.80
2022-09-15T01:02:09.900Z,16.70
2022-09-15T01:06:59.958Z,16.70
2022-09-15T01:11:44.645Z,16.70
2022-09-15T01:21:42.914Z,16.70
2022-09-15T01:27:24.097Z,16.70
2022-09-15T01:32:32.900Z,16.70
2022-09-15T01:37:22.941Z,16.70
2022-09-15T01:42:10.103Z,16.70
2022-09-15T01:46:58.502Z,16.60
2022-09-15T01:51:45.284Z,16.60
2022-09-15T01:56:28.755Z,16.60
2022-09-15T02:01:15.768Z,16.60
2022-09-15T02:06:03.586Z,16.90
2022-09-15T02:10:59.042Z,17.00
2022-09-15T02:15:48.172Z,17.10
2022-09-15T02:20:40.776Z,17.10
2022-09-15T02:25:30.037Z,16.90
2022-09-15T02:30:17.834Z,16.60
2022-09-15T02:35:04.930Z,16.70
2022-09-15T02:39:53.340Z,16.70
2022-09-15T02:44:36.943Z,16.70
2022-09-15T02:49:21.765Z,16.70
2022-09-15T02:54:05.265Z,16.60
2022-09-15T02:58:48.846Z,16.60
2022-09-15T03:03:32.332Z,16.40
2022-09-15T03:08:17.237Z,16.50
2022-09-15T03:13:00.654Z,16.40
2022-09-15T03:17:45.745Z,16.40
2022-09-15T03:22:29.119Z,16.30
2022-09-15T03:27:14.742Z,16.30
2022-09-15T03:31:58.214Z,16.30
2022-09-15T03:36:41.873Z,16.30
2022-09-15T03:41:25.930Z,16.20
2022-09-15T03:46:12.867Z,16.10
2022-09-15T03:50:56.360Z,16.10
2022-09-15T03:55:39.744Z,16.10
2022-09-15T04:00:24.012Z,15.90
2022-09-15T04:05:10.018Z,16.00
2022-09-15T04:09:53.510Z,15.90
2022-09-15T04:14:36.958Z,15.80
2022-09-15T04:19:20.307Z,15.80
2022-09-15T04:24:06.174Z,15.80
2022-09-15T04:28:49.774Z,15.80
2022-09-15T04:33:33.219Z,15.70
2022-09-15T04:38:16.620Z,15.80
2022-09-15T04:43:01.450Z,15.80
2022-09-15T04:47:45.279Z,15.70
2022-09-15T04:52:28.661Z,15.70
2022-09-15T04:57:12.148Z,15.60
2022-09-15T05:01:57.235Z,15.60
2022-09-15T05:06:40.785Z,15.60
2022-09-15T05:11:25.072Z,15.60
2022-09-15T05:16:12.301Z,15.70
2022-09-15T05:21:01.493Z,15.70
2022-09-15T05:25:44.873Z,15.80
2022-09-15T05:30:44.589Z,15.80
2022-09-15T05:35:28.249Z,15.90
2022-09-15T05:40:13.255Z,16.00
2022-09-15T05:44:56.651Z,16.10
2022-09-15T05:49:40.127Z,16.10
2022-09-15T05:54:23.507Z,16.30
2022-09-15T05:59:08.336Z,16.30
2022-09-15T06:03:53.025Z,16.50
2022-09-15T06:08:39.675Z,16.50
2022-09-15T06:13:26.147Z,16.80
2022-09-15T06:18:10.972Z,16.90
2022-09-15T06:22:56.286Z,17.10
2022-09-15T06:27:40.030Z,17.10
2022-09-15T06:32:23.391Z,17.30
2022-09-15T06:37:08.258Z,17.20
2022-09-15T06:42:02.282Z,17.10
2022-09-15T06:46:46.688Z,17.20
2022-09-15T06:51:35.472Z,17.20
2022-09-15T06:56:22.295Z,17.40
2022-09-15T07:01:09.362Z,17.50
2022-09-15T07:05:52.855Z,17.60
2022-09-15T07:10:36.510Z,17.70
2022-09-15T07:15:23.562Z,17.90
2022-09-15T07:20:07.911Z,18.10
2022-09-15T07:24:51.331Z,18.00
2022-09-15T07:29:37.718Z,18.00
2022-09-15T07:34:22.701Z,18.10
2022-09-15T07:39:06.750Z,18.40
2022-09-15T07:43:51.239Z,18.20
2022-09-15T07:48:34.932Z,18.50
2022-09-15T07:53:19.794Z,18.50
2022-09-15T07:58:04.002Z,18.50
2022-09-15T08:02:47.391Z,18.20
2022-09-15T08:07:30.783Z,18.10
2022-09-15T08:12:15.618Z,18.00
2022-09-15T08:17:01.211Z,18.20
2022-09-15T08:21:44.610Z,18.40
2022-09-15T08:26:29.130Z,18.20
2022-09-15T08:31:15.679Z,18.10
2022-09-15T08:36:03.377Z,18.10
2022-09-15T08:40:48.090Z,18.10
2022-09-15T08:45:38.980Z,18.10
2022-09-15T08:50:28.735Z,18.20
2022-09-15T08:55:16.957Z,18.50
2022-09-15T09:00:00.987Z,18.70
2022-09-15T09:05:00.776Z,19.10
2022-09-15T09:09:51.739Z,19.40
2022-09-15T09:14:46.542Z,19.80
2022-09-15T09:19:59.181Z,19.80
2022-09-15T09:24:47.396Z,19.20
2022-09-15T09:29:35.982Z,19.50
2022-09-15T09:34:26.715Z,19.60
2022-09-15T09:39:12.430Z,19.20
2022-09-15T09:43:57.868Z,19.10
2022-09-15T09:48:44.540Z,19.20
2022-09-15T09:53:31.245Z,19.00
2022-09-15T09:58:18.842Z,19.00
2022-09-15T10:03:12.917Z,19.10
2022-09-15T10:08:04.073Z,19.50
2022-09-15T10:12:48.129Z,19.60
2022-09-15T10:17:42.542Z,19.80
2022-09-15T10:22:30.834Z,20.00
2022-09-15T10:27:26.570Z,20.30
2022-09-15T10:32:28.231Z,20.50
2022-09-15T10:37:21.715Z,20.70
2022-09-15T10:42:14.353Z,21.10
2022-09-15T10:47:10.277Z,21.20
2022-09-15T10:52:05.162Z,20.70
2022-09-15T10:56:53.393Z,20.50
2022-09-15T11:02:02.532Z,20.60
2022-09-15T11:06:54.196Z,20.60
2022-09-15T11:11:51.905Z,20.70
2022-09-15T11:16:50.655Z,20.60
2022-09-15T11:21:38.057Z,20.70
2022-09-15T11:26:29.263Z,20.90
2022-09-15T11:31:18.443Z,20.80
2022-09-15T11:36:07.841Z,20.80
2022-09-15T11:40:56.236Z,20.70
2022-09-15T11:45:45.452Z,20.40
2022-09-15T11:50:33.692Z,20.40
2022-09-15T11:55:25.858Z,20.70
2022-09-15T12:00:14.962Z,20.70
2022-09-15T12:05:05.732Z,20.80
2022-09-15T12:09:50.039Z,20.70
2022-09-15T12:14:37.567Z,20.70
2022-09-15T12:19:42.159Z,20.70
2022-09-15T12:24:37.477Z,20.50
2022-09-15T12:29:52.655Z,20.50
2022-09-15T12:34:38.575Z,21.00
2022-09-15T12:39:31.704Z,21.30
2022-09-15T12:44:21.934Z,21.10
2022-09-15T12:49:06.921Z,20.90
2022-09-15T12:53:54.841Z,20.70
2022-09-15T12:58:40.877Z,20.50
2022-09-15T13:03:30.019Z,20.20
2022-09-15T13:08:36.338Z,20.50
2022-09-15T13:13:28.807Z,20.60
2022-09-15T13:18:15.959Z,20.50
2022-09-15T13:23:00.915Z,20.40
2022-09-15T13:27:47.107Z,20.40
2022-09-15T13:32:44.884Z,20.40
2022-09-15T13:38:15.223Z,20.40
2022-09-15T13:43:25.990Z,20.70
2022-09-15T13:48:33.993Z,20.70
2022-09-15T13:53:32.579Z,20.80
2022-09-15T14:03:28.504Z,20.50
2022-09-15T14:08:16.712Z,20.70
2022-09-15T14:13:01.797Z,20.80
2022-09-15T14:17:47.879Z,21.00
2022-09-15T14:22:32.625Z,21.30
2022-09-15T14:27:23.644Z,21.40
2022-09-15T14:32:07.360Z,21.40
2022-09-15T14:37:03.362Z,21.50
2022-09-15T14:41:47.753Z,21.50
2022-09-15T14:46:38.385Z,21.20
2022-09-15T14:51:24.463Z,21.50
2022-09-15T14:56:16.481Z,21.50
2022-09-15T15:01:03.432Z,21.70
2022-09-15T15:05:54.681Z,21.60
2022-09-15T15:10:45.977Z,21.70
2022-09-15T15:15:32.459Z,21.60
2022-09-15T15:20:18.790Z,21.30
2022-09-15T15:25:02.810Z,21.10
2022-09-15T15:29:47.342Z,20.80
2022-09-15T15:34:32.258Z,20.60
2022-09-15T15:39:25.688Z,20.50
2022-09-15T15:44:27.788Z,20.40
2022-09-15T15:49:12.796Z,20.10
2022-09-15T15:53:58.035Z,20.10
2022-09-15T15:58:41.347Z,20.00
2022-09-15T16:03:25.953Z,20.00
2022-09-15T16:08:15.849Z,19.80
2022-09-15T16:13:00.624Z,19.40
2022-09-15T16:17:46.859Z,19.20
2022-09-15T16:22:30.437Z,18.90
2022-09-15T16:27:17.073Z,18.60
2022-09-15T16:32:12.235Z,18.50
2022-09-15T16:36:55.543Z,18.50
2022-09-15T16:41:39.467Z,18.30
2022-09-15T16:46:23.220Z,18.10
2022-09-15T16:56:16.105Z,17.80
2022-09-15T17:00:59.491Z,17.60
2022-09-15T17:05:48.550Z,17.20
2022-09-15T17:10:34.481Z,17.10
2022-09-15T17:15:25.281Z,17.00
2022-09-15T17:20:09.547Z,16.90
2022-09-15T17:24:53.162Z,16.90
2022-09-15T17:29:37.952Z,16.80
2022-09-15T17:34:21.667Z,16.70
2022-09-15T17:39:05.211Z,16.60
2022-09-15T17:43:49.641Z,16.60
2022-09-15T17:48:34.438Z,16.50
2022-09-15T17:53:21.575Z,16.50
2022-09-15T17:58:06.731Z,16.50
2022-09-15T18:02:52.979Z,16.50
2022-09-15T18:07:38.241Z,16.40
2022-09-15T18:12:21.804Z,16.40
2022-09-15T18:17:05.336Z,16.40
2022-09-15T18:21:53.572Z,16.50
2022-09-15T18:26:40.222Z,16.40
2022-09-15T18:31:24.216Z,16.40
2022-09-15T18:36:09.762Z,16.30
2022-09-15T18:40:55.798Z,16.30
2022-09-15T18:45:42.255Z,16.20
2022-09-15T18:50:26.940Z,16.30
2022-09-15T18:55:14.852Z,16.30
2022-09-15T18:59:58.594Z,16.30
2022-09-15T19:04:44.843Z,16.30
2022-09-15T19:09:28.676Z,16.20
2022-09-15T19:14:12.272Z,16.10
2022-09-15T19:18:57.175Z,16.10
2022-09-15T19:23:42.515Z,16.10
2022-09-15T19:28:26.233Z,16.10
2022-09-15T19:33:11.477Z,16.10
2022-09-15T19:37:55.540Z,16.10
2022-09-15T19:42:41.648Z,16.00
2022-09-15T19:47:25.279Z,15.90
2022-09-15T19:52:08.755Z,15.80
2022-09-15T19:56:52.552Z,15.80
2022-09-15T20:01:37.616Z,15.70
2022-09-15T20:11:22.506Z,15.90
2022-09-15T20:16:06.500Z,15.90
2022-09-15T20:20:51.630Z,16.00
2022-09-15T20:25:36.043Z,15.90
2022-09-15T20:30:22.437Z,15.90
2022-09-15T20:35:06.423Z,15.90
2022-09-15T20:39:51.766Z,15.90
2022-09-15T20:44:35.233Z,16.00
2022-09-15T20:49:18.742Z,16.00
2022-09-15T20:54:03.796Z,16.00
2022-09-15T20:58:49.131Z,16.00
2022-09-15T21:03:32.945Z,16.10
2022-09-15T21:08:16.489Z,16.10
2022-09-15T21:13:00.755Z,16.10
2022-09-15T21:17:46.818Z,16.20
2022-09-15T21:22:30.803Z,16.20
2022-09-15T21:27:30.793Z,16.10
2022-09-15T21:32:14.876Z,16.10
2022-09-15T21:37:00.356Z,16.10
2022-09-15T21:41:44.356Z,16.10
2022-09-15T21:46:30.055Z,16.00
2022-09-15T21:51:15.207Z,15.90
2022-09-15T21:56:02.826Z,15.90
2022-09-15T22:00:46.369Z,15.80
2022-09-15T22:05:30.972Z,15.80
2022-09-15T22:10:14.405Z,15.70
2022-09-15T22:14:59.159Z,15.80
2022-09-15T22:19:42.503Z,15.90
2022-09-15T22:24:26.375Z,15.90
2022-09-15T22:29:09.828Z,15.90
2022-09-15T22:33:54.940Z,15.90
2022-09-15T22:38:39.151Z,15.90
2022-09-15T22:43:23.052Z,15.90
2022-09-15T22:48:06.446Z,15.90
2022-09-15T22:52:52.118Z,15.80
2022-09-15T22:57:39.634Z,15.90
2022-09-15T23:02:23.087Z,15.90
2022-09-15T23:07:06.558Z,15.80
2022-09-15T23:11:51.354Z,15.80
2022-09-15T23:16:34.948Z,15.70
2022-09-15T23:21:18.487Z,15.60
2022-09-15T23:26:02.375Z,15.50
2022-09-15T23:30:47.366Z,15.40
2022-09-15T23:35:30.676Z,15.40
2022-09-15T23:40:14.269Z,15.40
2022-09-15T23:44:58.086Z,15.40
2022-09-15T23:49:42.831Z,15.40
2022-09-15T23:54:26.190Z,15.30
2022-09-15T23:59:09.590Z,15.30
